createdAt,value
2023-04-18T00:04:35.389Z,7.10
2023-04-18T00:09:36.890Z,6.95
2023-04-18T00:14:38.238Z,6.45
2023-04-18T00:19:43.106Z,6.68
2023-04-18T00:24:44.467Z,6.93
2023-04-18T00:29:45.946Z,6.93
2023-04-18T00:34:47.296Z,7.10
2023-04-18T00:39:48.612Z,7.10
2023-04-18T00:44:49.957Z,6.80
2023-04-18T00:49:51.484Z,7.15
2023-04-18T00:54:53.493Z,7.43
2023-04-18T00:59:54.959Z,6.85
2023-04-18T01:04:58.605Z,7.43
2023-04-18T01:10:01.522Z,7.53
2023-04-18T01:15:04.706Z,7.32
2023-04-18T01:20:06.710Z,7.80
2023-04-18T01:25:09.092Z,7.82
2023-04-18T01:30:11.006Z,7.85
2023-04-18T01:35:12.354Z,6.85
2023-04-18T01:40:13.889Z,7.18
2023-04-18T01:45:15.988Z,6.30
2023-04-18T01:50:17.361Z,7.85
2023-04-18T01:55:18.820Z,7.88
2023-04-18T02:00:20.941Z,7.90
2023-04-18T02:05:22.357Z,7.75
2023-04-18T02:10:23.856Z,8.57
2023-04-18T02:15:25.312Z,8.02
2023-04-18T02:20:28.669Z,8.45
2023-04-18T02:25:30.486Z,9.35
2023-04-18T02:30:32.038Z,9.38
2023-04-18T02:35:33.419Z,8.63
2023-04-18T02:40:34.762Z,10.65
2023-04-18T02:45:36.193Z,9.38
2023-04-18T02:50:37.575Z,8.55
2023-04-18T02:55:38.988Z,9.07
2023-04-18T03:00:40.373Z,10.95
2023-04-18T03:05:41.757Z,9.25
2023-04-18T03:10:43.124Z,9.52
2023-04-18T03:15:44.565Z,9.75
2023-04-18T03:20:46.073Z,9.43
2023-04-18T03:25:47.458Z,9.77
2023-04-18T03:30:48.835Z,11.15
2023-04-18T03:35:50.443Z,12.07
2023-04-18T03:40:52.173Z,11.50
2023-04-18T03:45:53.566Z,12.45
2023-04-18T03:50:55.153Z,12.85
2023-04-18T03:55:56.645Z,13.43
2023-04-18T04:00:58.002Z,12.60
2023-04-18T04:05:59.460Z,13.43
2023-04-18T04:11:00.848Z,14.75
2023-04-18T04:16:02.674Z,11.32
2023-04-18T04:21:05.742Z,12.30
2023-04-18T04:26:08.142Z,10.70
2023-04-18T04:31:10.316Z,10.30
2023-04-18T04:36:16.162Z,11.25
2023-04-18T04:41:18.774Z,9.75
2023-04-18T04:46:20.691Z,10.13
2023-04-18T04:51:22.114Z,9.05
2023-04-18T04:56:24.025Z,8.40
2023-04-18T05:01:25.625Z,8.32
2023-04-18T05:06:27.453Z,8.60
2023-04-18T05:11:28.795Z,9.60
2023-04-18T05:16:30.190Z,8.35
2023-04-18T05:21:31.623Z,9.30
2023-04-18T05:26:32.993Z,9.38
2023-04-18T05:31:34.439Z,8.15
2023-04-18T05:36:36.339Z,8.52
2023-04-18T05:41:37.693Z,8.13
2023-04-18T05:46:39.320Z,8.93
2023-04-18T05:51:40.873Z,7.78
2023-04-18T05:56:42.524Z,7.45
2023-04-18T06:01:44.205Z,8.45
2023-04-18T06:06:46.064Z,7.75
2023-04-18T06:11:47.416Z,7.93
2023-04-18T06:16:49.049Z,7.78
2023-04-18T06:21:50.682Z,6.53
2023-04-18T06:26:52.072Z,6.28
2023-04-18T06:31:53.506Z,7.20
2023-04-18T06:36:55.718Z,6.97
2023-04-18T06:41:58.043Z,6.53
2023-04-18T06:46:59.473Z,6.88
2023-04-18T06:52:00.816Z,6.25
2023-04-18T06:57:03.630Z,6.60
2023-04-18T07:02:05.060Z,6.25
2023-04-18T07:07:06.542Z,5.53
2023-04-18T07:12:07.921Z,4.80
2023-04-18T07:17:09.316Z,4.85
2023-04-18T07:22:10.830Z,4.47
2023-04-18T07:27:12.244Z,4.13
2023-04-18T07:32:13.645Z,4.07
2023-04-18T07:37:16.552Z,3.88
2023-04-18T07:42:17.939Z,3.83
2023-04-18T07:47:22.273Z,3.92
2023-04-18T07:52:24.067Z,4.28
2023-04-18T07:57:25.386Z,4.25
2023-04-18T08:02:26.839Z,4.57
2023-04-18T08:07:28.268Z,4.57
2023-04-18T08:12:29.644Z,4.07
2023-04-18T08:17:31.346Z,4.47
2023-04-18T08:22:33.426Z,6.50
2023-04-18T08:27:34.830Z,5.30
2023-04-18T08:32:36.800Z,4.53
2023-04-18T08:37:39.281Z,4.53
2023-04-18T08:42:43.660Z,4.78
2023-04-18T08:47:45.120Z,4.65
2023-04-18T08:52:49.657Z,4.88
2023-04-18T08:57:54.069Z,4.22
2023-04-18T09:02:59.056Z,5.07
2023-04-18T09:08:26.426Z,5.15
2023-04-18T09:13:39.860Z,4.82
2023-04-18T09:18:44.177Z,4.80
2023-04-18T09:23:50.205Z,5.38
2023-04-18T09:28:53.977Z,5.38
2023-04-18T09:33:57.051Z,5.25
2023-04-18T09:38:58.617Z,4.13
2023-04-18T09:44:15.695Z,4.75
2023-04-18T09:49:17.874Z,4.90
2023-04-18T09:54:20.983Z,5.20
2023-04-18T09:59:36.643Z,4.63
2023-04-18T10:04:38.439Z,3.97
2023-04-18T10:09:44.474Z,4.38
2023-04-18T10:14:46.204Z,6.20
2023-04-18T10:20:05.441Z,5.18
2023-04-18T10:25:07.363Z,4.45
2023-04-18T10:30:09.349Z,3.47
2023-04-18T10:35:11.136Z,4.20
2023-04-18T10:40:12.599Z,3.95
2023-04-18T10:45:20.865Z,4.05
2023-04-18T10:50:22.988Z,3.67
2023-04-18T10:55:28.552Z,4.15
2023-04-18T11:00:31.017Z,3.15
2023-04-18T11:05:32.469Z,2.70
2023-04-18T11:10:33.821Z,2.58
2023-04-18T11:15:36.686Z,2.60
2023-04-18T11:20:45.639Z,2.63
2023-04-18T11:25:50.366Z,2.63
2023-04-18T11:30:51.736Z,2.92
2023-04-18T11:35:58.269Z,2.78
2023-04-18T11:41:02.502Z,2.53
2023-04-18T11:46:03.908Z,2.53
2023-04-18T11:51:06.655Z,2.63
2023-04-18T11:56:08.021Z,2.33
2023-04-18T12:01:35.636Z,2.33
2023-04-18T12:06:50.885Z,3.00
2023-04-18T12:12:03.081Z,2.40
2023-04-18T12:17:04.505Z,3.78
2023-04-18T12:22:09.611Z,2.65
2023-04-18T12:27:12.046Z,2.58
2023-04-18T12:32:13.436Z,2.65
2023-04-18T12:37:14.760Z,2.40
2023-04-18T12:42:16.098Z,2.05
2023-04-18T12:47:17.526Z,2.15
2023-04-18T12:52:18.989Z,2.15
2023-04-18T12:57:20.543Z,2.25
2023-04-18T13:02:22.266Z,2.42
2023-04-18T13:07:24.832Z,3.30
2023-04-18T13:12:26.457Z,3.30
2023-04-18T13:17:27.929Z,3.50
2023-04-18T13:22:30.804Z,3.88
2023-04-18T13:27:32.166Z,3.60
2023-04-18T13:32:33.757Z,4.80
2023-04-18T13:37:35.611Z,4.32
2023-04-18T13:42:38.482Z,4.53
2023-04-18T13:47:39.970Z,4.47
2023-04-18T13:52:41.334Z,4.70
2023-04-18T13:57:42.691Z,4.05
2023-04-18T14:02:44.175Z,4.65
2023-04-18T14:07:45.678Z,4.43
2023-04-18T14:12:47.019Z,4.47
2023-04-18T14:17:48.436Z,4.68
2023-04-18T14:22:53.030Z,5.10
2023-04-18T14:28:09.392Z,5.15
2023-04-18T14:33:10.981Z,6.20
2023-04-18T14:38:12.354Z,6.47
2023-04-18T14:43:13.992Z,6.60
2023-04-18T14:48:15.839Z,5.88
2023-04-18T14:53:17.222Z,5.95
2023-04-18T14:58:18.579Z,5.70
2023-04-18T15:03:20.223Z,5.18
2023-04-18T15:08:21.955Z,5.85
2023-04-18T15:13:23.365Z,5.60
2023-04-18T15:18:24.724Z,5.43
2023-04-18T15:23:26.220Z,5.32
2023-04-18T15:28:27.780Z,5.45
2023-04-18T15:33:29.217Z,5.85
2023-04-18T15:38:32.842Z,5.15
2023-04-18T15:43:34.726Z,5.10
2023-04-18T15:48:36.356Z,4.82
2023-04-18T15:53:37.701Z,4.63
2023-04-18T15:58:39.405Z,4.65
2023-04-18T16:03:40.904Z,5.20
2023-04-18T16:08:42.339Z,5.20
2023-04-18T16:13:43.664Z,4.95
2023-04-18T16:18:45.597Z,4.60
2023-04-18T16:23:46.972Z,4.30
2023-04-18T16:28:48.528Z,4.47
2023-04-18T16:33:52.388Z,4.13
2023-04-18T16:38:53.920Z,4.07
2023-04-18T16:43:55.389Z,3.60
2023-04-18T16:48:56.775Z,3.92
2023-04-18T16:53:58.091Z,3.45
2023-04-18T16:58:59.497Z,3.25
2023-04-18T17:04:02.122Z,3.95
2023-04-18T17:09:06.151Z,4.82
2023-04-18T17:14:08.626Z,5.15
2023-04-18T17:19:10.625Z,4.05
2023-04-18T17:24:11.968Z,4.30
2023-04-18T17:29:13.452Z,4.38
2023-04-18T17:34:15.010Z,3.92
2023-04-18T17:39:17.001Z,3.72
2023-04-18T17:44:18.358Z,4.60
2023-04-18T17:49:21.053Z,3.80
2023-04-18T17:54:22.402Z,5.03
2023-04-18T17:59:23.968Z,6.03
2023-04-18T18:04:26.638Z,5.18
2023-04-18T18:09:28.387Z,5.03
2023-04-18T18:14:29.782Z,4.88
2023-04-18T18:19:31.486Z,5.28
2023-04-18T18:24:32.859Z,4.63
2023-04-18T18:29:34.193Z,5.22
2023-04-18T18:34:36.073Z,6.20
2023-04-18T18:39:37.616Z,6.10
2023-04-18T18:44:39.022Z,5.03
2023-04-18T18:49:40.706Z,5.35
2023-04-18T18:54:42.080Z,5.85
2023-04-18T18:59:43.457Z,4.80
2023-04-18T19:04:44.935Z,5.57
2023-04-18T19:09:47.023Z,6.68
2023-04-18T19:14:49.635Z,9.63
2023-04-18T19:19:52.103Z,6.50
2023-04-18T19:24:53.545Z,5.75
2023-04-18T19:29:54.945Z,5.85
2023-04-18T19:34:56.304Z,5.95
2023-04-18T19:39:57.624Z,5.45
2023-04-18T19:45:00.191Z,6.13
2023-04-18T19:50:01.553Z,5.55
2023-04-18T19:55:02.932Z,6.78
2023-04-18T20:00:07.030Z,6.18
2023-04-18T20:05:09.272Z,5.70
2023-04-18T20:10:11.315Z,5.55
2023-04-18T20:15:12.715Z,5.80
2023-04-18T20:20:14.055Z,4.95
2023-04-18T20:25:15.389Z,5.32
2023-04-18T20:30:16.801Z,5.13
2023-04-18T20:35:19.779Z,4.72
2023-04-18T20:40:21.808Z,4.28
2023-04-18T20:45:24.626Z,4.55
2023-04-18T20:50:25.981Z,4.15
2023-04-18T20:55:27.743Z,4.40
2023-04-18T21:00:29.074Z,4.30
2023-04-18T21:05:31.998Z,4.55
2023-04-18T21:10:33.872Z,4.30
2023-04-18T21:15:35.757Z,4.25
2023-04-18T21:20:37.142Z,4.40
2023-04-18T21:25:38.812Z,4.13
2023-04-18T21:30:40.147Z,3.55
2023-04-18T21:35:41.471Z,3.92
2023-04-18T21:40:42.785Z,2.92
2023-04-18T21:45:46.000Z,3.80
2023-04-18T21:50:53.830Z,3.85
2023-04-18T21:55:55.198Z,3.35
2023-04-18T22:00:56.714Z,4.10
2023-04-18T22:05:58.502Z,2.97
2023-04-18T22:11:00.181Z,2.90
2023-04-18T22:16:03.022Z,3.50
2023-04-18T22:21:04.760Z,3.20
2023-04-18T22:26:06.133Z,3.10
2023-04-18T22:31:07.575Z,3.03
2023-04-18T22:36:09.084Z,2.90
2023-04-18T22:41:10.423Z,3.50
2023-04-18T22:46:11.757Z,3.10
2023-04-18T22:51:14.717Z,3.45
2023-04-18T22:56:16.263Z,3.25
2023-04-18T23:01:17.834Z,3.28
2023-04-18T23:06:19.316Z,3.75
2023-04-18T23:11:21.100Z,4.03
2023-04-18T23:16:22.940Z,4.05
2023-04-18T23:21:24.502Z,3.75
2023-04-18T23:26:26.367Z,3.35
2023-04-18T23:31:27.748Z,4.03
2023-04-18T23:36:29.640Z,3.65
2023-04-18T23:41:31.020Z,3.88
2023-04-18T23:46:34.293Z,4.28
2023-04-18T23:51:37.554Z,4.63
2023-04-18T23:56:38.941Z,4.93
